sensor_id;sensor_type;location;lat;lon;timestamp;P1;durP1;ratioP1;P2;durP2;ratioP2
32501;SDS011;18952;52.516;13.460;2022-11-04T00:00:52;20.15;;;11.60;;
32501;SDS011;18952;52.516;13.460;2022-11-04T00:03:19;24.38;;;11.38;;
32501;SDS011;18952;52.516;13.460;2022-11-04T00:05:46;25.02;;;11.82;;
32501;SDS011;18952;52.516;13.460;2022-11-04T00:08:13;23.52;;;12.23;;
32501;SDS011;18952;52.516;13.460;2022-11-04T00:10:39;23.48;;;12.70;;
32501;SDS011;18952;52.516;13.460;2022-11-04T00:13:06;19.58;;;12.48;;
32501;SDS011;18952;52.516;13.460;2022-11-04T00:15:36;24.65;;;13.38;;
32501;SDS011;18952;52.516;13.460;2022-11-04T00:18:03;19.70;;;11.82;;
32501;SDS011;18952;52.516;13.460;2022-11-04T00:20:30;24.75;;;13.40;;
32501;SDS011;18952;52.516;13.460;2022-11-04T00:22:56;26.08;;;13.82;;
32501;SDS011;18952;52.516;13.460;2022-11-04T00:25:23;29.83;;;13.30;;
32501;SDS011;18952;52.516;13.460;2022-11-04T00:27:50;26.15;;;13.68;;
32501;SDS011;18952;52.516;13.460;2022-11-04T00:30:17;21.42;;;12.98;;
32501;SDS011;18952;52.516;13.460;2022-11-04T00:32:44;28.00;;;13.55;;
32501;SDS011;18952;52.516;13.460;2022-11-04T00:35:11;23.00;;;13.20;;
32501;SDS011;18952;52.516;13.460;2022-11-04T00:37:38;23.38;;;13.13;;
32501;SDS011;18952;52.516;13.460;2022-11-04T00:40:07;21.75;;;12.50;;
32501;SDS011;18952;52.516;13.460;2022-11-04T00:42:35;23.55;;;12.68;;
32501;SDS011;18952;52.516;13.460;2022-11-04T00:45:02;24.15;;;12.98;;
32501;SDS011;18952;52.516;13.460;2022-11-04T00:47:29;23.00;;;12.45;;
32501;SDS011;18952;52.516;13.460;2022-11-04T00:49:56;23.70;;;12.88;;
32501;SDS011;18952;52.516;13.460;2022-11-04T00:52:23;24.42;;;13.23;;
32501;SDS011;18952;52.516;13.460;2022-11-04T00:54:50;25.80;;;13.15;;
32501;SDS011;18952;52.516;13.460;2022-11-04T00:57:17;25.27;;;14.25;;
32501;SDS011;18952;52.516;13.460;2022-11-04T00:59:43;25.05;;;12.95;;
32501;SDS011;18952;52.516;13.460;2022-11-04T01:02:10;25.00;;;13.40;;
32501;SDS011;18952;52.516;13.460;2022-11-04T01:04:37;21.88;;;12.95;;
32501;SDS011;18952;52.516;13.460;2022-11-04T01:07:04;27.70;;;13.38;;
32501;SDS011;18952;52.516;13.460;2022-11-04T01:09:31;26.13;;;13.23;;
32501;SDS011;18952;52.516;13.460;2022-11-04T01:11:58;30.92;;;13.00;;
32501;SDS011;18952;52.516;13.460;2022-11-04T01:14:24;26.23;;;13.38;;
32501;SDS011;18952;52.516;13.460;2022-11-04T01:16:51;31.05;;;14.10;;
32501;SDS011;18952;52.516;13.460;2022-11-04T01:19:18;23.63;;;13.32;;
32501;SDS011;18952;52.516;13.460;2022-11-04T01:21:45;27.15;;;14.20;;
32501;SDS011;18952;52.516;13.460;2022-11-04T01:24:15;35.10;;;13.70;;
32501;SDS011;18952;52.516;13.460;2022-11-04T01:26:41;23.08;;;12.60;;
32501;SDS011;18952;52.516;13.460;2022-11-04T01:29:08;23.23;;;13.73;;
32501;SDS011;18952;52.516;13.460;2022-11-04T01:31:35;27.40;;;14.43;;
32501;SDS011;18952;52.516;13.460;2022-11-04T01:34:02;23.10;;;13.45;;
32501;SDS011;18952;52.516;13.460;2022-11-04T01:36:29;22.67;;;13.70;;
32501;SDS011;18952;52.516;13.460;2022-11-04T01:38:58;25.30;;;13.70;;
32501;SDS011;18952;52.516;13.460;2022-11-04T01:41:29;21.95;;;14.10;;
32501;SDS011;18952;52.516;13.460;2022-11-04T01:43:58;26.48;;;14.50;;
32501;SDS011;18952;52.516;13.460;2022-11-04T01:49:28;25.48;;;14.02;;
32501;SDS011;18952;52.516;13.460;2022-11-04T01:52:07;25.70;;;13.45;;
32501;SDS011;18952;52.516;13.460;2022-11-04T01:54:39;29.60;;;14.18;;
32501;SDS011;18952;52.516;13.460;2022-11-04T01:57:08;22.75;;;13.40;;
32501;SDS011;18952;52.516;13.460;2022-11-04T01:59:40;24.80;;;14.25;;
32501;SDS011;18952;52.516;13.460;2022-11-04T02:02:07;23.77;;;14.13;;
32501;SDS011;18952;52.516;13.460;2022-11-04T02:04:34;25.50;;;14.48;;
32501;SDS011;18952;52.516;13.460;2022-11-04T02:07:03;26.00;;;14.38;;
32501;SDS011;18952;52.516;13.460;2022-11-04T02:09:33;28.40;;;14.82;;
32501;SDS011;18952;52.516;13.460;2022-11-04T02:12:02;26.70;;;13.88;;
32501;SDS011;18952;52.516;13.460;2022-11-04T02:14:29;24.50;;;14.35;;
32501;SDS011;18952;52.516;13.460;2022-11-04T02:19:54;21.42;;;13.82;;
32501;SDS011;18952;52.516;13.460;2022-11-04T02:25:32;26.10;;;14.05;;
32501;SDS011;18952;52.516;13.460;2022-11-04T02:31:26;26.70;;;14.18;;
32501;SDS011;18952;52.516;13.460;2022-11-04T02:34:03;26.95;;;14.77;;
32501;SDS011;18952;52.516;13.460;2022-11-04T02:37:03;25.40;;;14.32;;
32501;SDS011;18952;52.516;13.460;2022-11-04T02:40:55;25.48;;;15.15;;
32501;SDS011;18952;52.516;13.460;2022-11-04T02:45:51;25.65;;;14.52;;
32501;SDS011;18952;52.516;13.460;2022-11-04T02:51:12;30.30;;;16.17;;
32501;SDS011;18952;52.516;13.460;2022-11-04T02:53:49;22.73;;;13.85;;
32501;SDS011;18952;52.516;13.460;2022-11-04T02:56:45;25.60;;;15.07;;
32501;SDS011;18952;52.516;13.460;2022-11-04T02:59:19;32.38;;;15.23;;
32501;SDS011;18952;52.516;13.460;2022-11-04T03:01:54;24.58;;;14.75;;
32501;SDS011;18952;52.516;13.460;2022-11-04T03:04:27;26.38;;;14.90;;
32501;SDS011;18952;52.516;13.460;2022-11-04T03:06:57;25.73;;;14.43;;
32501;SDS011;18952;52.516;13.460;2022-11-04T03:09:27;23.27;;;14.80;;
32501;SDS011;18952;52.516;13.460;2022-11-04T03:11:58;25.40;;;15.60;;
32501;SDS011;18952;52.516;13.460;2022-11-04T03:14:42;22.45;;;14.48;;
32501;SDS011;18952;52.516;13.460;2022-11-04T03:17:18;25.92;;;14.88;;
32501;SDS011;18952;52.516;13.460;2022-11-04T03:20:08;25.15;;;15.13;;
32501;SDS011;18952;52.516;13.460;2022-11-04T03:22:42;25.30;;;15.30;;
32501;SDS011;18952;52.516;13.460;2022-11-04T03:25:09;26.77;;;15.45;;
32501;SDS011;18952;52.516;13.460;2022-11-04T03:30:15;28.33;;;15.63;;
32501;SDS011;18952;52.516;13.460;2022-11-04T03:37:47;25.67;;;15.13;;
32501;SDS011;18952;52.516;13.460;2022-11-04T03:40:14;24.35;;;14.77;;
32501;SDS011;18952;52.516;13.460;2022-11-04T03:42:47;26.50;;;14.38;;
32501;SDS011;18952;52.516;13.460;2022-11-04T03:45:23;24.50;;;14.30;;
32501;SDS011;18952;52.516;13.460;2022-11-04T03:47:51;27.20;;;15.20;;
32501;SDS011;18952;52.516;13.460;2022-11-04T03:52:48;24.52;;;14.35;;
32501;SDS011;18952;52.516;13.460;2022-11-04T03:55:15;25.58;;;14.70;;
32501;SDS011;18952;52.516;13.460;2022-11-04T03:57:45;28.33;;;16.33;;
32501;SDS011;18952;52.516;13.460;2022-11-04T04:00:20;26.73;;;15.50;;
32501;SDS011;18952;52.516;13.460;2022-11-04T04:02:57;27.17;;;15.60;;
32501;SDS011;18952;52.516;13.460;2022-11-04T04:08:12;25.33;;;15.48;;
32501;SDS011;18952;52.516;13.460;2022-11-04T04:16:54;27.17;;;15.98;;
32501;SDS011;18952;52.516;13.460;2022-11-04T04:19:24;28.98;;;15.32;;
32501;SDS011;18952;52.516;13.460;2022-11-04T04:21:52;27.20;;;15.80;;
32501;SDS011;18952;52.516;13.460;2022-11-04T04:24:28;25.55;;;15.77;;
32501;SDS011;18952;52.516;13.460;2022-11-04T04:27:01;28.33;;;15.45;;
32501;SDS011;18952;52.516;13.460;2022-11-04T04:29:28;25.30;;;16.40;;
32501;SDS011;18952;52.516;13.460;2022-11-04T04:31:56;29.25;;;15.95;;
32501;SDS011;18952;52.516;13.460;2022-11-04T04:34:25;49.15;;;17.55;;
32501;SDS011;18952;52.516;13.460;2022-11-04T04:37:07;34.47;;;15.82;;
32501;SDS011;18952;52.516;13.460;2022-11-04T04:39:40;33.95;;;15.55;;
32501;SDS011;18952;52.516;13.460;2022-11-04T04:42:12;27.70;;;15.57;;
32501;SDS011;18952;52.516;13.460;2022-11-04T04:44:40;29.08;;;15.30;;
32501;SDS011;18952;52.516;13.460;2022-11-04T04:47:07;28.75;;;15.85;;
32501;SDS011;18952;52.516;13.460;2022-11-04T04:49:36;30.98;;;16.17;;
32501;SDS011;18952;52.516;13.460;2022-11-04T04:52:13;28.50;;;16.42;;
32501;SDS011;18952;52.516;13.460;2022-11-04T04:54:40;26.38;;;16.30;;
32501;SDS011;18952;52.516;13.460;2022-11-04T04:57:07;30.45;;;16.13;;
32501;SDS011;18952;52.516;13.460;2022-11-04T04:59:33;29.85;;;15.52;;
32501;SDS011;18952;52.516;13.460;2022-11-04T05:02:00;29.08;;;15.88;;
32501;SDS011;18952;52.516;13.460;2022-11-04T05:04:27;26.92;;;16.13;;
32501;SDS011;18952;52.516;13.460;2022-11-04T05:06:54;28.35;;;15.88;;
32501;SDS011;18952;52.516;13.460;2022-11-04T05:09:21;26.83;;;16.55;;
32501;SDS011;18952;52.516;13.460;2022-11-04T05:11:47;26.95;;;16.42;;
32501;SDS011;18952;52.516;13.460;2022-11-04T05:14:14;28.75;;;16.08;;
32501;SDS011;18952;52.516;13.460;2022-11-04T05:16:41;24.90;;;15.95;;
32501;SDS011;18952;52.516;13.460;2022-11-04T05:19:07;26.33;;;15.82;;
32501;SDS011;18952;52.516;13.460;2022-11-04T05:21:34;27.20;;;15.68;;
32501;SDS011;18952;52.516;13.460;2022-11-04T05:24:01;27.55;;;16.73;;
32501;SDS011;18952;52.516;13.460;2022-11-04T05:26:28;28.50;;;16.27;;
32501;SDS011;18952;52.516;13.460;2022-11-04T05:28:55;31.48;;;16.25;;
32501;SDS011;18952;52.516;13.460;2022-11-04T05:31:22;28.38;;;16.80;;
32501;SDS011;18952;52.516;13.460;2022-11-04T05:33:49;26.20;;;16.00;;
32501;SDS011;18952;52.516;13.460;2022-11-04T05:36:18;32.53;;;15.98;;
32501;SDS011;18952;52.516;13.460;2022-11-04T05:38:48;27.13;;;15.98;;
32501;SDS011;18952;52.516;13.460;2022-11-04T05:41:17;29.45;;;16.02;;
32501;SDS011;18952;52.516;13.460;2022-11-04T05:43:44;27.20;;;15.95;;
32501;SDS011;18952;52.516;13.460;2022-11-04T05:46:10;26.90;;;16.25;;
32501;SDS011;18952;52.516;13.460;2022-11-04T05:48:37;27.77;;;16.15;;
32501;SDS011;18952;52.516;13.460;2022-11-04T05:51:06;31.25;;;16.17;;
32501;SDS011;18952;52.516;13.460;2022-11-04T05:53:34;31.65;;;16.25;;
32501;SDS011;18952;52.516;13.460;2022-11-04T05:56:01;26.65;;;16.67;;
32501;SDS011;18952;52.516;13.460;2022-11-04T05:58:28;29.48;;;17.70;;
32501;SDS011;18952;52.516;13.460;2022-11-04T06:01:09;25.83;;;17.45;;
32501;SDS011;18952;52.516;13.460;2022-11-04T06:03:49;25.77;;;16.17;;
32501;SDS011;18952;52.516;13.460;2022-11-04T06:06:20;29.38;;;16.60;;
32501;SDS011;18952;52.516;13.460;2022-11-04T06:08:51;29.63;;;16.92;;
32501;SDS011;18952;52.516;13.460;2022-11-04T06:11:18;28.35;;;17.55;;
32501;SDS011;18952;52.516;13.460;2022-11-04T06:13:46;25.42;;;16.98;;
32501;SDS011;18952;52.516;13.460;2022-11-04T06:16:13;28.90;;;17.20;;
32501;SDS011;18952;52.516;13.460;2022-11-04T06:18:40;29.73;;;17.20;;
32501;SDS011;18952;52.516;13.460;2022-11-04T06:21:17;24.98;;;17.45;;
32501;SDS011;18952;52.516;13.460;2022-11-04T06:23:47;33.63;;;18.70;;
32501;SDS011;18952;52.516;13.460;2022-11-04T06:26:14;31.67;;;17.48;;
32501;SDS011;18952;52.516;13.460;2022-11-04T06:28:43;31.83;;;17.85;;
32501;SDS011;18952;52.516;13.460;2022-11-04T06:31:10;34.63;;;19.00;;
32501;SDS011;18952;52.516;13.460;2022-11-04T06:33:38;26.83;;;17.60;;
32501;SDS011;18952;52.516;13.460;2022-11-04T06:36:06;29.85;;;17.77;;
32501;SDS011;18952;52.516;13.460;2022-11-04T06:38:35;32.50;;;18.13;;
32501;SDS011;18952;52.516;13.460;2022-11-04T06:41:06;29.30;;;17.00;;
32501;SDS011;18952;52.516;13.460;2022-11-04T06:43:34;32.08;;;18.17;;
32501;SDS011;18952;52.516;13.460;2022-11-04T06:46:01;39.50;;;19.50;;
32501;SDS011;18952;52.516;13.460;2022-11-04T06:48:28;37.33;;;24.23;;
32501;SDS011;18952;52.516;13.460;2022-11-04T06:50:56;37.92;;;21.38;;
32501;SDS011;18952;52.516;13.460;2022-11-04T06:53:24;32.33;;;19.27;;
32501;SDS011;18952;52.516;13.460;2022-11-04T06:55:52;28.38;;;17.98;;
32501;SDS011;18952;52.516;13.460;2022-11-04T06:58:19;29.23;;;18.88;;
32501;SDS011;18952;52.516;13.460;2022-11-04T07:00:51;35.53;;;18.92;;
32501;SDS011;18952;52.516;13.460;2022-11-04T07:03:18;28.20;;;18.73;;
32501;SDS011;18952;52.516;13.460;2022-11-04T07:05:45;33.00;;;18.58;;
32501;SDS011;18952;52.516;13.460;2022-11-04T07:08:12;32.35;;;18.25;;
32501;SDS011;18952;52.516;13.460;2022-11-04T07:10:38;29.90;;;18.40;;
32501;SDS011;18952;52.516;13.460;2022-11-04T07:13:05;29.45;;;19.60;;
32501;SDS011;18952;52.516;13.460;2022-11-04T07:15:32;30.23;;;18.77;;
32501;SDS011;18952;52.516;13.460;2022-11-04T07:17:59;30.00;;;19.55;;
32501;SDS011;18952;52.516;13.460;2022-11-04T07:20:26;31.55;;;20.38;;
32501;SDS011;18952;52.516;13.460;2022-11-04T07:22:53;31.50;;;19.90;;
32501;SDS011;18952;52.516;13.460;2022-11-04T07:25:26;31.65;;;19.90;;
32501;SDS011;18952;52.516;13.460;2022-11-04T07:27:53;31.23;;;22.30;;
32501;SDS011;18952;52.516;13.460;2022-11-04T07:30:24;31.35;;;21.20;;
32501;SDS011;18952;52.516;13.460;2022-11-04T07:32:51;30.40;;;22.23;;
32501;SDS011;18952;52.516;13.460;2022-11-04T07:35:18;31.02;;;23.73;;
32501;SDS011;18952;52.516;13.460;2022-11-04T07:37:45;32.70;;;24.38;;
32501;SDS011;18952;52.516;13.460;2022-11-04T07:40:11;36.85;;;24.38;;
32501;SDS011;18952;52.516;13.460;2022-11-04T07:42:38;34.28;;;23.98;;
32501;SDS011;18952;52.516;13.460;2022-11-04T07:45:05;31.88;;;24.27;;
32501;SDS011;18952;52.516;13.460;2022-11-04T07:47:33;34.10;;;24.50;;
32501;SDS011;18952;52.516;13.460;2022-11-04T07:50:00;32.35;;;24.02;;
32501;SDS011;18952;52.516;13.460;2022-11-04T07:52:35;31.40;;;25.30;;
32501;SDS011;18952;52.516;13.460;2022-11-04T07:55:02;34.45;;;25.15;;
32501;SDS011;18952;52.516;13.460;2022-11-04T07:57:29;31.70;;;24.50;;
32501;SDS011;18952;52.516;13.460;2022-11-04T07:59:56;29.83;;;24.13;;
32501;SDS011;18952;52.516;13.460;2022-11-04T08:02:23;31.15;;;25.02;;
32501;SDS011;18952;52.516;13.460;2022-11-04T08:04:56;35.55;;;25.90;;
32501;SDS011;18952;52.516;13.460;2022-11-04T08:07:26;30.08;;;22.67;;
32501;SDS011;18952;52.516;13.460;2022-11-04T08:09:52;33.67;;;24.65;;
32501;SDS011;18952;52.516;13.460;2022-11-04T08:12:19;33.17;;;23.80;;
32501;SDS011;18952;52.516;13.460;2022-11-04T08:14:46;33.25;;;23.48;;
32501;SDS011;18952;52.516;13.460;2022-11-04T08:17:12;34.10;;;25.00;;
32501;SDS011;18952;52.516;13.460;2022-11-04T08:19:39;28.73;;;22.50;;
32501;SDS011;18952;52.516;13.460;2022-11-04T08:22:06;35.03;;;23.13;;
32501;SDS011;18952;52.516;13.460;2022-11-04T08:24:33;30.08;;;22.67;;
32501;SDS011;18952;52.516;13.460;2022-11-04T08:27:00;29.88;;;23.00;;
32501;SDS011;18952;52.516;13.460;2022-11-04T08:29:27;33.70;;;22.40;;
32501;SDS011;18952;52.516;13.460;2022-11-04T08:31:54;30.88;;;24.10;;
32501;SDS011;18952;52.516;13.460;2022-11-04T08:34:20;36.83;;;25.73;;
32501;SDS011;18952;52.516;13.460;2022-11-04T08:36:47;34.90;;;23.77;;
32501;SDS011;18952;52.516;13.460;2022-11-04T08:39:14;30.60;;;21.85;;
32501;SDS011;18952;52.516;13.460;2022-11-04T08:41:41;32.55;;;22.77;;
32501;SDS011;18952;52.516;13.460;2022-11-04T08:44:09;26.77;;;21.02;;
32501;SDS011;18952;52.516;13.460;2022-11-04T08:46:37;28.27;;;20.13;;
32501;SDS011;18952;52.516;13.460;2022-11-04T08:49:05;29.25;;;20.60;;
32501;SDS011;18952;52.516;13.460;2022-11-04T08:51:38;26.60;;;19.30;;
32501;SDS011;18952;52.516;13.460;2022-11-04T08:54:08;26.98;;;18.23;;
32501;SDS011;18952;52.516;13.460;2022-11-04T08:56:36;22.77;;;18.33;;
32501;SDS011;18952;52.516;13.460;2022-11-04T08:59:10;28.58;;;17.73;;
32501;SDS011;18952;52.516;13.460;2022-11-04T09:01:37;23.58;;;18.13;;
32501;SDS011;18952;52.516;13.460;2022-11-04T09:04:04;22.42;;;16.98;;
32501;SDS011;18952;52.516;13.460;2022-11-04T09:06:33;26.98;;;18.02;;
32501;SDS011;18952;52.516;13.460;2022-11-04T09:09:02;24.42;;;16.83;;
32501;SDS011;18952;52.516;13.460;2022-11-04T09:11:31;23.60;;;17.25;;
32501;SDS011;18952;52.516;13.460;2022-11-04T09:14:01;22.52;;;15.48;;
32501;SDS011;18952;52.516;13.460;2022-11-04T09:16:29;17.67;;;15.20;;
32501;SDS011;18952;52.516;13.460;2022-11-04T09:18:58;21.52;;;15.85;;
32501;SDS011;18952;52.516;13.460;2022-11-04T09:21:26;19.92;;;14.75;;
32501;SDS011;18952;52.516;13.460;2022-11-04T09:23:53;21.98;;;15.10;;
32501;SDS011;18952;52.516;13.460;2022-11-04T09:26:20;21.77;;;15.18;;
32501;SDS011;18952;52.516;13.460;2022-11-04T09:28:51;20.30;;;14.35;;
32501;SDS011;18952;52.516;13.460;2022-11-04T09:31:22;21.23;;;15.48;;
32501;SDS011;18952;52.516;13.460;2022-11-04T09:33:50;20.80;;;16.20;;
32501;SDS011;18952;52.516;13.460;2022-11-04T09:36:19;25.85;;;15.85;;
32501;SDS011;18952;52.516;13.460;2022-11-04T09:38:46;23.73;;;17.17;;
32501;SDS011;18952;52.516;13.460;2022-11-04T09:46:35;22.65;;;17.55;;
32501;SDS011;18952;52.516;13.460;2022-11-04T09:49:03;28.52;;;18.38;;
32501;SDS011;18952;52.516;13.460;2022-11-04T09:51:33;22.33;;;17.15;;
32501;SDS011;18952;52.516;13.460;2022-11-04T09:54:24;25.92;;;18.75;;
32501;SDS011;18952;52.516;13.460;2022-11-04T09:57:16;24.30;;;18.83;;
32501;SDS011;18952;52.516;13.460;2022-11-04T09:59:44;24.35;;;16.38;;
32501;SDS011;18952;52.516;13.460;2022-11-04T10:10:33;21.33;;;14.15;;
32501;SDS011;18952;52.516;13.460;2022-11-04T10:13:17;19.60;;;13.80;;
32501;SDS011;18952;52.516;13.460;2022-11-04T10:21:10;17.05;;;12.50;;
32501;SDS011;18952;52.516;13.460;2022-11-04T10:26:38;16.30;;;12.63;;
32501;SDS011;18952;52.516;13.460;2022-11-04T10:29:13;14.75;;;12.20;;
32501;SDS011;18952;52.516;13.460;2022-11-04T10:31:51;19.67;;;12.23;;
32501;SDS011;18952;52.516;13.460;2022-11-04T10:34:31;14.90;;;12.30;;
32501;SDS011;18952;52.516;13.460;2022-11-04T10:37:22;19.17;;;12.82;;
32501;SDS011;18952;52.516;13.460;2022-11-04T10:39:51;16.85;;;12.95;;
32501;SDS011;18952;52.516;13.460;2022-11-04T10:43:01;18.33;;;13.90;;
32501;SDS011;18952;52.516;13.460;2022-11-04T10:45:35;20.00;;;15.32;;
32501;SDS011;18952;52.516;13.460;2022-11-04T10:48:13;18.77;;;16.17;;
32501;SDS011;18952;52.516;13.460;2022-11-04T10:50:52;22.25;;;18.33;;
32501;SDS011;18952;52.516;13.460;2022-11-04T10:53:26;21.90;;;16.90;;
32501;SDS011;18952;52.516;13.460;2022-11-04T10:58:49;21.42;;;14.63;;
32501;SDS011;18952;52.516;13.460;2022-11-04T11:01:23;21.60;;;16.25;;
32501;SDS011;18952;52.516;13.460;2022-11-04T11:04:00;20.58;;;14.25;;
32501;SDS011;18952;52.516;13.460;2022-11-04T11:06:32;17.88;;;14.45;;
32501;SDS011;18952;52.516;13.460;2022-11-04T11:09:11;18.75;;;13.88;;
32501;SDS011;18952;52.516;13.460;2022-11-04T11:11:45;15.73;;;13.43;;
32501;SDS011;18952;52.516;13.460;2022-11-04T11:14:15;18.52;;;13.60;;
32501;SDS011;18952;52.516;13.460;2022-11-04T11:16:41;20.48;;;13.80;;
32501;SDS011;18952;52.516;13.460;2022-11-04T11:19:26;17.77;;;13.80;;
32501;SDS011;18952;52.516;13.460;2022-11-04T11:21:54;17.88;;;13.43;;
32501;SDS011;18952;52.516;13.460;2022-11-04T11:24:23;17.45;;;14.15;;
32501;SDS011;18952;52.516;13.460;2022-11-04T11:26:52;16.45;;;13.00;;
32501;SDS011;18952;52.516;13.460;2022-11-04T11:29:24;17.33;;;12.73;;
32501;SDS011;18952;52.516;13.460;2022-11-04T11:31:52;15.60;;;12.57;;
32501;SDS011;18952;52.516;13.460;2022-11-04T11:34:25;16.27;;;13.20;;
32501;SDS011;18952;52.516;13.460;2022-11-04T11:36:56;16.67;;;13.05;;
32501;SDS011;18952;52.516;13.460;2022-11-04T11:39:24;17.92;;;14.75;;
32501;SDS011;18952;52.516;13.460;2022-11-04T11:42:06;20.83;;;14.57;;
32501;SDS011;18952;52.516;13.460;2022-11-04T11:44:47;18.52;;;14.27;;
32501;SDS011;18952;52.516;13.460;2022-11-04T11:50:35;19.00;;;16.15;;
32501;SDS011;18952;52.516;13.460;2022-11-04T11:52:48;22.23;;;17.08;;
32501;SDS011;18952;52.516;13.460;2022-11-04T11:55:29;24.67;;;17.98;;
32501;SDS011;18952;52.516;13.460;2022-11-04T12:01:16;28.30;;;22.70;;
32501;SDS011;18952;52.516;13.460;2022-11-04T12:03:51;27.92;;;21.77;;
32501;SDS011;18952;52.516;13.460;2022-11-04T12:09:59;28.15;;;24.85;;
32501;SDS011;18952;52.516;13.460;2022-11-04T12:16:12;24.48;;;21.73;;
32501;SDS011;18952;52.516;13.460;2022-11-04T12:18:52;24.73;;;22.05;;
32501;SDS011;18952;52.516;13.460;2022-11-04T12:21:42;24.52;;;20.48;;
32501;SDS011;18952;52.516;13.460;2022-11-04T12:27:03;21.30;;;17.00;;
32501;SDS011;18952;52.516;13.460;2022-11-04T12:29:45;22.83;;;20.42;;
32501;SDS011;18952;52.516;13.460;2022-11-04T12:34:48;27.40;;;22.77;;
32501;SDS011;18952;52.516;13.460;2022-11-04T12:37:46;20.40;;;16.63;;
32501;SDS011;18952;52.516;13.460;2022-11-04T12:40:28;22.70;;;18.10;;
32501;SDS011;18952;52.516;13.460;2022-11-04T12:53:54;24.45;;;19.35;;
32501;SDS011;18952;52.516;13.460;2022-11-04T12:56:41;22.85;;;16.90;;
32501;SDS011;18952;52.516;13.460;2022-11-04T13:07:45;20.67;;;18.13;;
32501;SDS011;18952;52.516;13.460;2022-11-04T13:10:22;19.73;;;17.75;;
32501;SDS011;18952;52.516;13.460;2022-11-04T13:12:55;22.13;;;17.08;;
32501;SDS011;18952;52.516;13.460;2022-11-04T13:15:24;20.50;;;17.88;;
32501;SDS011;18952;52.516;13.460;2022-11-04T13:17:56;20.67;;;17.25;;
32501;SDS011;18952;52.516;13.460;2022-11-04T13:20:30;19.48;;;16.73;;
32501;SDS011;18952;52.516;13.460;2022-11-04T13:23:04;24.25;;;19.65;;
32501;SDS011;18952;52.516;13.460;2022-11-04T13:25:43;19.30;;;17.35;;
32501;SDS011;18952;52.516;13.460;2022-11-04T13:28:11;21.83;;;16.90;;
32501;SDS011;18952;52.516;13.460;2022-11-04T13:30:50;18.58;;;16.40;;
32501;SDS011;18952;52.516;13.460;2022-11-04T13:38:51;18.13;;;16.27;;
32501;SDS011;18952;52.516;13.460;2022-11-04T13:41:30;18.13;;;15.27;;
32501;SDS011;18952;52.516;13.460;2022-11-04T13:44:17;21.30;;;16.27;;
32501;SDS011;18952;52.516;13.460;2022-11-04T13:46:46;17.00;;;15.10;;
32501;SDS011;18952;52.516;13.460;2022-11-04T13:49:19;18.02;;;15.68;;
32501;SDS011;18952;52.516;13.460;2022-11-04T13:51:59;19.67;;;15.63;;
32501;SDS011;18952;52.516;13.460;2022-11-04T13:54:45;16.63;;;14.73;;
32501;SDS011;18952;52.516;13.460;2022-11-04T13:57:18;17.63;;;15.45;;
32501;SDS011;18952;52.516;13.460;2022-11-04T14:10:41;21.83;;;19.45;;
32501;SDS011;18952;52.516;13.460;2022-11-04T14:16:00;20.35;;;16.48;;
32501;SDS011;18952;52.516;13.460;2022-11-04T14:21:03;23.70;;;17.88;;
32501;SDS011;18952;52.516;13.460;2022-11-04T14:23:45;20.30;;;18.05;;
32501;SDS011;18952;52.516;13.460;2022-11-04T14:26:16;23.02;;;20.58;;
32501;SDS011;18952;52.516;13.460;2022-11-04T14:29:06;20.85;;;18.63;;
32501;SDS011;18952;52.516;13.460;2022-11-04T14:31:38;22.50;;;18.65;;
32501;SDS011;18952;52.516;13.460;2022-11-04T14:34:22;21.60;;;18.92;;
32501;SDS011;18952;52.516;13.460;2022-11-04T14:36:57;23.58;;;20.02;;
32501;SDS011;18952;52.516;13.460;2022-11-04T14:39:37;23.85;;;18.27;;
32501;SDS011;18952;52.516;13.460;2022-11-04T14:42:05;24.50;;;19.65;;
32501;SDS011;18952;52.516;13.460;2022-11-04T14:44:49;24.85;;;20.63;;
32501;SDS011;18952;52.516;13.460;2022-11-04T14:47:20;23.10;;;19.40;;
32501;SDS011;18952;52.516;13.460;2022-11-04T15:01:00;24.58;;;18.13;;
32501;SDS011;18952;52.516;13.460;2022-11-04T15:03:32;20.10;;;18.15;;
32501;SDS011;18952;52.516;13.460;2022-11-04T15:06:22;20.90;;;18.63;;
32501;SDS011;18952;52.516;13.460;2022-11-04T15:09:22;22.30;;;19.90;;
32501;SDS011;18952;52.516;13.460;2022-11-04T15:14:37;21.02;;;18.92;;
32501;SDS011;18952;52.516;13.460;2022-11-04T15:17:04;22.02;;;19.73;;
32501;SDS011;18952;52.516;13.460;2022-11-04T15:19:34;21.98;;;19.42;;
32501;SDS011;18952;52.516;13.460;2022-11-04T15:22:02;19.92;;;18.02;;
32501;SDS011;18952;52.516;13.460;2022-11-04T15:24:41;22.13;;;17.60;;
32501;SDS011;18952;52.516;13.460;2022-11-04T15:27:09;20.77;;;17.75;;
32501;SDS011;18952;52.516;13.460;2022-11-04T15:30:01;21.73;;;18.05;;
32501;SDS011;18952;52.516;13.460;2022-11-04T15:32:30;18.10;;;16.27;;
32501;SDS011;18952;52.516;13.460;2022-11-04T15:34:57;19.77;;;17.60;;
32501;SDS011;18952;52.516;13.460;2022-11-04T15:37:24;19.10;;;16.88;;
32501;SDS011;18952;52.516;13.460;2022-11-04T15:39:54;18.85;;;17.05;;
32501;SDS011;18952;52.516;13.460;2022-11-04T15:42:23;21.48;;;19.10;;
32501;SDS011;18952;52.516;13.460;2022-11-04T15:44:53;20.58;;;18.58;;
32501;SDS011;18952;52.516;13.460;2022-11-04T15:47:22;19.25;;;16.77;;
32501;SDS011;18952;52.516;13.460;2022-11-04T15:49:51;21.08;;;18.63;;
32501;SDS011;18952;52.516;13.460;2022-11-04T15:52:20;21.20;;;18.08;;
32501;SDS011;18952;52.516;13.460;2022-11-04T15:54:52;22.20;;;17.33;;
32501;SDS011;18952;52.516;13.460;2022-11-04T15:57:27;22.30;;;17.25;;
32501;SDS011;18952;52.516;13.460;2022-11-04T15:59:58;21.10;;;16.98;;
32501;SDS011;18952;52.516;13.460;2022-11-04T16:02:32;18.85;;;16.48;;
32501;SDS011;18952;52.516;13.460;2022-11-04T16:05:15;18.83;;;16.85;;
32501;SDS011;18952;52.516;13.460;2022-11-04T16:07:53;19.10;;;16.98;;
32501;SDS011;18952;52.516;13.460;2022-11-04T16:10:23;19.00;;;17.00;;
32501;SDS011;18952;52.516;13.460;2022-11-04T16:13:01;19.73;;;16.80;;
32501;SDS011;18952;52.516;13.460;2022-11-04T16:20:32;18.70;;;16.73;;
32501;SDS011;18952;52.516;13.460;2022-11-04T16:23:00;23.15;;;17.30;;
32501;SDS011;18952;52.516;13.460;2022-11-04T16:25:33;19.10;;;17.17;;
32501;SDS011;18952;52.516;13.460;2022-11-04T16:28:01;19.52;;;17.52;;
32501;SDS011;18952;52.516;13.460;2022-11-04T16:30:28;18.85;;;16.95;;
32501;SDS011;18952;52.516;13.460;2022-11-04T16:33:05;23.55;;;17.98;;
32501;SDS011;18952;52.516;13.460;2022-11-04T16:35:34;17.92;;;15.48;;
32501;SDS011;18952;52.516;13.460;2022-11-04T16:38:01;19.13;;;15.75;;
32501;SDS011;18952;52.516;13.460;2022-11-04T16:40:28;18.10;;;15.18;;
32501;SDS011;18952;52.516;13.460;2022-11-04T16:42:55;18.30;;;16.33;;
32501;SDS011;18952;52.516;13.460;2022-11-04T16:45:26;18.75;;;16.10;;
32501;SDS011;18952;52.516;13.460;2022-11-04T16:48:01;20.73;;;16.55;;
32501;SDS011;18952;52.516;13.460;2022-11-04T16:50:29;18.63;;;16.50;;
32501;SDS011;18952;52.516;13.460;2022-11-04T16:52:57;20.75;;;15.82;;